Time;durP1;ratioP1;P1;durP2;ratioP2;P2;SDS_P1;SDS_P2;PMS_P1;PMS_P2;Temp;Humidity;BMP_temperature;BMP_pressure;BME280_temperature;BME280_humidity;BME280_pressure;Samples;Min_cycle;Max_cycle;Signal;HPM_P1;HPM_P2
2022/05/24 00:00:27;;;;;;;;;2.33;2.00;;;;;15.44;65.36;100196.00;5037800;28;46550;-74
2022/05/24 00:02:54;;;;;;;;;2.00;1.00;;;;;15.39;66.34;100189.81;5035084;28;45502;-75
2022/05/24 00:05:20;;;;;;;;;0.00;0.00;;;;;15.43;65.18;100188.09;5037273;28;46193;-74
2022/05/24 00:07:47;;;;;;;;;1.00;1.00;;;;;15.54;64.68;100207.47;5036033;28;45309;-73
2022/05/24 00:10:16;;;;;;;;;1.00;1.00;;;;;15.54;64.92;100194.28;5034674;28;45360;-74
2022/05/24 00:12:41;;;;;;;;;3.00;2.00;;;;;15.47;64.85;100185.47;5037405;28;45552;-73
2022/05/24 00:15:28;;;;;;;;;31.50;30.00;;;;;15.52;64.77;100196.03;5037332;28;46157;-74
2022/05/24 00:18:07;;;;;;;;;48.00;36.50;;;;;15.50;65.37;100189.91;5034670;28;45223;-74
2022/05/24 00:20:39;;;;;;;;;14.75;11.75;;;;;15.46;65.91;100196.88;5034655;28;45487;-74
2022/05/24 00:23:06;;;;;;;;;3.00;3.00;;;;;15.44;66.59;100197.75;5037809;28;45407;-73
2022/05/24 00:25:35;;;;;;;;;2.00;1.00;;;;;15.42;67.39;100188.94;5036794;28;45474;-74
2022/05/24 00:28:02;;;;;;;;;2.00;1.67;;;;;15.42;66.58;100187.22;5034319;28;45590;-73
2022/05/24 00:30:27;;;;;;;;;2.00;1.33;;;;;15.45;66.90;100186.34;5035787;28;45550;-73
2022/05/24 00:32:53;;;;;;;;;1.33;1.00;;;;;15.35;66.52;100164.38;5034476;28;45471;-74
2022/05/24 00:35:19;;;;;;;;;2.00;2.00;;;;;15.47;66.53;100177.56;5037030;28;46094;-74
2022/05/24 00:37:46;;;;;;;;;2.00;2.00;;;;;15.49;67.20;100170.56;5037139;28;45502;-74
2022/05/24 00:40:44;;;;;;;;;2.67;2.67;;;;;15.51;66.97;100173.22;5036894;28;45483;-75
2022/05/24 00:43:29;;;;;;;;;2.75;2.75;;;;;15.34;66.75;100143.31;5006677;28;45518;-73
2022/05/24 00:46:03;;;;;;;;;3.00;3.00;;;;;15.40;65.30;100149.50;5034201;28;46126;-73
2022/05/24 00:48:35;;;;;;;;;3.00;2.00;;;;;15.31;65.46;100139.78;5036521;28;45490;-74
2022/05/24 00:51:01;;;;;;;;;2.00;2.00;;;;;15.35;65.83;100145.06;5036818;28;45385;-74
2022/05/24 00:53:37;;;;;;;;;2.00;2.00;;;;;15.23;65.84;100128.34;5036898;28;45447;-73
2022/05/24 00:56:35;;;;;;;;;4.00;1.33;;;;;15.47;66.17;100174.06;5035184;28;45370;-74
2022/05/24 00:59:06;;;;;;;;;2.00;2.00;;;;;15.47;67.07;100174.06;5031388;28;45531;-74
2022/05/24 01:01:39;;;;;;;;;2.00;1.00;;;;;15.48;66.79;100175.84;5026957;28;45989;-74
2022/05/24 01:04:06;;;;;;;;;1.33;1.33;;;;;15.45;66.88;100166.16;5036225;28;45470;-75
2022/05/24 01:06:32;;;;;;;;;1.00;1.00;;;;;15.48;66.43;100167.94;5036416;28;45378;-74
2022/05/24 01:09:01;;;;;;;;;3.00;2.00;;;;;15.46;67.20;100159.16;5035165;28;45732;-74
2022/05/24 01:11:30;;;;;;;;;2.67;2.00;;;;;15.39;67.24;100152.09;5036297;28;45484;-73
2022/05/24 01:13:59;;;;;;;;;2.00;1.33;;;;;15.40;67.00;100161.75;5034155;28;45443;-74
2022/05/24 01:16:24;;;;;;;;;1.50;1.50;;;;;15.21;67.02;100134.50;5034838;28;46398;-73
2022/05/24 01:18:50;;;;;;;;;1.00;1.00;;;;;15.21;67.32;100150.28;5036008;28;45323;-74
2022/05/24 01:21:17;;;;;;;;;2.00;1.00;;;;;15.29;67.42;100167.84;5035220;28;45349;-73
2022/05/24 01:23:43;;;;;;;;;1.00;1.00;;;;;15.31;67.38;100160.84;5036655;28;45504;-72
2022/05/24 01:26:37;;;;;;;;;1.33;1.00;;;;;15.29;67.94;100159.94;5036209;28;45492;-72
2022/05/24 01:29:06;;;;;;;;;1.33;1.00;;;;;15.26;67.10;100149.44;5034710;28;45443;-72
2022/05/24 01:37:04;;;;;;;;;3.00;1.00;;;;;15.11;67.14;100137.06;5037680;28;45389;-73
2022/05/24 01:39:30;;;;;;;;;2.33;1.00;;;;;15.21;67.02;100140.63;5037804;28;45445;-75
2022/05/24 01:41:57;;;;;;;;;1.00;1.00;;;;;15.21;67.22;100138.00;5037638;28;45477;-74
2022/05/24 01:44:37;;;;;;;;;1.67;0.67;;;;;15.05;66.45;100109.84;5037499;28;45204;-74
2022/05/24 01:47:03;;;;;;;;;2.00;1.00;;;;;15.07;66.61;100127.41;5037447;28;45572;-73
2022/05/24 01:49:38;;;;;;;;;0.00;0.00;;;;;14.92;66.92;100101.00;5037508;28;45372;-73
2022/05/24 01:52:30;;;;;;;;;1.00;1.00;;;;;14.95;66.24;100113.31;5037651;28;45555;-72
2022/05/24 01:55:13;;;;;;;;;1.67;1.00;;;;;14.83;66.21;100115.00;5036459;28;45591;-73
2022/05/24 01:57:47;;;;;;;;;2.00;1.00;;;;;14.82;66.47;100115.88;5037746;28;46176;-74
2022/05/24 02:00:15;;;;;;;;;2.00;1.00;;;;;14.78;66.12;100107.94;5037617;28;45307;-74
2022/05/24 02:02:45;;;;;;;;;2.00;1.00;;;;;14.58;66.82;100076.28;5037705;28;45436;-75
2022/05/24 02:05:12;;;;;;;;;0.67;0.67;;;;;14.78;66.63;100105.31;5037891;28;45320;-75
2022/05/24 02:07:39;;;;;;;;;0.33;0.33;;;;;14.77;66.71;100112.34;5036108;28;45374;-75
2022/05/24 02:10:06;;;;;;;;;0.33;0.33;;;;;14.73;67.44;100113.19;5037424;28;45486;-76
2022/05/24 02:12:40;;;;;;;;;1.00;1.00;;;;;14.52;67.77;100091.13;5037389;28;45517;-74
2022/05/24 02:15:17;;;;;;;;;1.67;0.00;;;;;14.76;67.33;100126.34;5037544;28;45455;-73
2022/05/24 02:17:45;;;;;;;;;3.33;2.67;;;;;14.78;67.96;100137.78;5037125;28;45379;-73
2022/05/24 02:20:17;;;;;;;;;3.00;1.00;;;;;14.83;67.99;100136.03;5036128;28;45320;-73
2022/05/24 02:22:46;;;;;;;;;2.00;2.00;;;;;14.89;67.63;100136.06;5037340;28;45475;-73
2022/05/24 02:25:18;;;;;;;;;1.67;1.00;;;;;14.92;67.90;100137.84;5036237;28;45436;-73
2022/05/24 02:27:45;;;;;;;;;1.00;1.00;;;;;14.97;67.68;100137.88;5036751;28;45972;-73
2022/05/24 02:30:13;;;;;;;;;1.00;1.00;;;;;14.93;66.93;100115.06;5037224;28;45471;-73
2022/05/24 02:32:39;;;;;;;;;0.33;0.33;;;;;15.04;66.41;100132.66;5037362;28;45617;-75
2022/05/24 02:35:06;;;;;;;;;1.00;1.00;;;;;15.04;66.86;100127.41;5037285;28;45205;-75
2022/05/24 02:37:31;;;;;;;;;1.33;1.00;;;;;15.06;67.34;100127.38;5036459;28;46202;-73
2022/05/24 02:42:41;;;;;;;;;1.00;1.00;;;;;14.98;67.60;100113.31;5037421;28;45193;-75
2022/05/24 02:45:07;;;;;;;;;0.67;0.67;;;;;15.01;67.58;100123.88;5036981;28;45433;-73
2022/05/24 02:47:32;;;;;;;;;1.00;1.00;;;;;15.03;67.90;100128.25;5036897;28;46179;-73
2022/05/24 02:49:58;;;;;;;;;1.00;1.00;;;;;15.02;67.47;100121.25;5035501;28;45458;-72
2022/05/24 02:52:23;;;;;;;;;1.00;0.67;;;;;15.02;67.60;100116.00;5037063;28;45395;-72
2022/05/24 02:54:49;;;;;;;;;1.00;0.33;;;;;14.99;67.28;100110.72;5036040;28;45370;-74
2022/05/24 02:57:14;;;;;;;;;1.00;1.00;;;;;14.93;67.16;100088.75;5036663;28;46028;-73
2022/05/24 02:59:40;;;;;;;;;1.00;1.00;;;;;14.88;66.62;100087.00;5035586;28;45366;-73
2022/05/24 03:02:06;;;;;;;;;1.00;1.00;;;;;14.79;66.42;100091.31;5036734;28;45496;-73
2022/05/24 03:04:33;;;;;;;;;0.67;0.67;;;;;14.49;67.27;100067.44;5036936;28;45573;-73
2022/05/24 03:09:42;;;;;;;;;2.00;1.00;;;;;14.63;66.87;100103.50;5036880;28;45386;-74
2022/05/24 03:14:55;;;;;;;;;1.00;1.00;;;;;14.62;68.17;100093.84;5036885;28;45430;-73
2022/05/24 03:17:21;;;;;;;;;2.00;1.00;;;;;14.40;68.22;100067.38;5036551;28;45651;-74
2022/05/24 03:19:47;;;;;;;;;1.00;0.33;;;;;14.42;68.51;100067.41;5036522;28;45363;-74
2022/05/24 03:22:13;;;;;;;;;1.67;1.00;;;;;14.31;68.62;100070.84;5037024;28;45399;-74
2022/05/24 03:24:40;;;;;;;;;0.00;0.00;;;;;14.16;68.94;100056.69;5035219;28;45474;-74
2022/05/24 03:27:11;;;;;;;;;0.00;0.00;;;;;13.89;68.46;100016.25;5036647;28;46252;-74
2022/05/24 03:29:38;;;;;;;;;1.00;1.00;;;;;13.95;68.68;100047.81;5039762;28;45504;-74
2022/05/24 03:32:05;;;;;;;;;2.00;0.33;;;;;14.04;69.27;100076.75;5039771;28;45277;-73
2022/05/24 03:34:31;;;;;;;;;1.67;1.67;;;;;14.05;69.20;100068.00;5039890;28;45663;-74
2022/05/24 03:36:56;;;;;;;;;1.00;1.00;;;;;14.08;68.46;100051.38;5038214;28;45481;-74
2022/05/24 03:39:22;;;;;;;;;0.33;0.00;;;;;14.05;68.81;100041.75;5039984;28;45219;-75
2022/05/24 03:41:47;;;;;;;;;1.00;0.67;;;;;14.07;69.42;100047.03;5039916;28;45223;-73
2022/05/24 03:44:13;;;;;;;;;3.00;2.67;;;;;14.00;69.78;100042.56;5038790;28;45483;-74
2022/05/24 03:46:38;;;;;;;;;3.00;3.00;;;;;14.23;69.80;100064.66;5040298;28;45517;-75
2022/05/24 03:49:05;;;;;;;;;1.00;1.00;;;;;14.36;68.86;100065.59;5046736;28;45350;-75
2022/05/24 03:51:30;;;;;;;;;1.00;1.00;;;;;14.43;68.48;100064.78;5040495;28;45325;-74
2022/05/24 03:53:56;;;;;;;;;0.00;0.00;;;;;14.51;68.13;100057.81;5039601;28;45485;-74
2022/05/24 03:56:22;;;;;;;;;3.00;1.00;;;;;14.51;68.49;100049.94;5045960;28;45291;-76
2022/05/24 03:58:48;;;;;;;;;1.33;0.00;;;;;14.31;68.55;100018.28;5048441;28;45249;-73
2022/05/24 04:01:13;;;;;;;;;1.67;1.00;;;;;14.44;68.53;100048.16;5042565;28;45458;-73
2022/05/24 04:03:39;;;;;;;;;0.00;0.00;;;;;14.29;67.73;100042.78;5039584;28;45458;-72
2022/05/24 04:06:05;;;;;;;;;8.25;8.25;;;;;14.41;68.99;100057.78;5039134;28;46103;-73
2022/05/24 04:08:30;;;;;;;;;1.00;1.00;;;;;14.42;69.29;100060.38;5039137;28;45589;-72
2022/05/24 04:11:08;;;;;;;;;1.00;1.00;;;;;14.45;69.13;100054.28;5039367;28;45465;-73
2022/05/24 04:13:36;;;;;;;;;1.00;1.00;;;;;14.51;69.38;100055.19;5039667;28;45477;-72
2022/05/24 04:16:02;;;;;;;;;1.00;0.00;;;;;14.55;68.84;100057.84;5039079;28;45390;-75
2022/05/24 04:18:28;;;;;;;;;2.00;0.67;;;;;14.55;67.85;100057.84;5039064;28;45296;-75
2022/05/24 04:20:54;;;;;;;;;1.00;1.00;;;;;14.60;68.41;100070.16;5039058;28;45315;-74
2022/05/24 04:23:21;;;;;;;;;1.00;1.00;;;;;14.61;69.49;100064.03;5037945;28;45556;-73
2022/05/24 04:25:48;;;;;;;;;0.33;0.33;;;;;14.68;69.40;100075.47;5039183;28;46084;-74
2022/05/24 04:28:14;;;;;;;;;2.00;0.33;;;;;14.71;70.16;100065.84;5054493;28;45380;-74
2022/05/24 04:30:40;;;;;;;;;1.00;1.00;;;;;14.71;68.89;100072.88;5039003;28;45310;-75
2022/05/24 04:33:06;;;;;;;;;1.00;1.00;;;;;14.70;69.73;100078.97;5039064;28;45423;-75
2022/05/24 04:35:32;;;;;;;;;7.25;6.75;;;;;14.71;69.72;100080.75;5038700;28;45461;-75
2022/05/24 04:37:59;;;;;;;;;0.00;0.00;;;;;14.70;69.55;100073.72;5037554;28;45372;-75
2022/05/24 04:43:11;;;;;;;;;2.00;1.00;;;;;14.69;69.14;100069.34;5017243;28;45545;-75
2022/05/24 04:45:36;;;;;;;;;1.67;1.00;;;;;14.67;68.25;100079.84;5038476;28;45413;-75
2022/05/24 04:48:03;;;;;;;;;1.00;1.00;;;;;14.60;68.10;100058.78;5038505;28;45491;-75
2022/05/24 04:50:28;;;;;;;;;1.33;1.00;;;;;14.70;68.44;100071.09;5038935;28;45312;-74
2022/05/24 04:52:54;;;;;;;;;1.00;1.00;;;;;14.70;68.05;100077.25;5038809;28;45293;-74
2022/05/24 04:55:19;;;;;;;;;1.00;1.00;;;;;14.69;69.29;100075.47;5038783;28;45324;-75
2022/05/24 04:57:45;;;;;;;;;1.33;1.00;;;;;14.75;68.78;100079.03;5038582;28;45418;-74
2022/05/24 05:00:15;;;;;;;;;1.33;1.00;;;;;14.78;67.69;100074.69;5038424;28;45443;-74
2022/05/24 05:02:41;;;;;;;;;2.00;1.67;;;;;14.83;68.59;100086.06;5038104;28;45521;-74
2022/05/24 05:05:07;;;;;;;;;1.00;1.00;;;;;14.84;68.55;100085.22;5037881;28;45228;-75
2022/05/24 05:07:33;;;;;;;;;2.00;2.00;;;;;14.72;66.61;100048.31;5038269;28;45604;-74
2022/05/24 05:09:59;;;;;;;;;1.00;1.00;;;;;14.89;66.37;100077.34;5038326;28;45433;-74
2022/05/24 05:12:26;;;;;;;;;3.00;1.00;;;;;14.91;67.21;100081.72;5038346;28;45236;-74
2022/05/24 05:14:52;;;;;;;;;0.00;0.00;;;;;14.86;67.22;100064.16;5038524;28;45523;-74
2022/05/24 05:17:18;;;;;;;;;0.00;0.00;;;;;14.96;67.50;100088.75;5038461;28;45318;-75
2022/05/24 05:19:45;;;;;;;;;0.00;0.00;;;;;14.88;67.96;100070.31;5038307;28;45291;-74
2022/05/24 05:22:12;;;;;;;;;1.67;1.67;;;;;14.93;68.44;100079.13;5037038;28;45252;-75
2022/05/24 05:24:38;;;;;;;;;0.00;0.00;;;;;14.74;67.59;100049.19;5036480;28;46704;-74
2022/05/24 05:27:04;;;;;;;;;0.00;0.00;;;;;14.95;67.55;100079.13;5038138;28;45684;-75
2022/05/24 05:32:19;;;;;;;;;1.00;1.00;;;;;14.87;67.10;100058.06;5038060;28;45382;-75
2022/05/24 05:34:47;;;;;;;;;0.67;0.67;;;;;14.98;66.21;100068.59;5037390;28;46231;-74
2022/05/24 05:37:12;;;;;;;;;1.00;1.00;;;;;15.14;65.99;100083.59;5037692;28;45487;-74
2022/05/24 05:39:38;;;;;;;;;1.67;1.00;;;;;15.04;65.44;100063.38;5037686;28;45280;-73
2022/05/24 05:42:04;;;;;;;;;1.67;1.00;;;;;15.26;65.17;100093.25;5039231;28;45616;-74
2022/05/24 05:44:29;;;;;;;;;1.00;1.00;;;;;15.16;64.81;100081.84;5037312;28;46057;-73
2022/05/24 05:46:56;;;;;;;;;0.00;0.00;;;;;15.22;65.84;100105.56;5037265;28;45485;-73
2022/05/24 05:49:21;;;;;;;;;0.00;0.00;;;;;15.23;65.59;100104.66;5037510;28;45304;-74
2022/05/24 05:51:47;;;;;;;;;1.33;0.33;;;;;15.25;65.03;100105.56;5052834;28;45454;-74
2022/05/24 05:54:13;;;;;;;;;0.00;0.00;;;;;15.20;64.85;100086.25;5037137;28;46232;-74
2022/05/24 05:56:40;;;;;;;;;0.67;0.67;;;;;15.40;64.50;100096.84;5037085;28;45493;-73
2022/05/24 05:59:06;;;;;;;;;0.00;0.00;;;;;15.43;64.05;100093.34;5037602;28;45347;-73
2022/05/24 06:01:31;;;;;;;;;0.33;0.33;;;;;15.40;64.04;100093.31;5037646;28;45387;-74
2022/05/24 06:03:58;;;;;;;;;0.00;0.00;;;;;15.47;64.11;100097.72;5037343;28;45878;-74
2022/05/24 06:06:28;;;;;;;;;0.00;0.00;;;;;15.49;63.62;100075.78;5037822;28;45357;-74
2022/05/24 06:08:54;;;;;;;;;0.33;0.00;;;;;15.91;63.12;100078.53;5037971;28;45350;-73
2022/05/24 06:11:22;;;;;;;;;1.00;1.00;;;;;17.06;61.12;100104.75;5037564;28;45319;-74
2022/05/24 06:13:48;;;;;;;;;0.00;0.00;;;;;19.93;54.10;100080.94;5037047;28;46143;-73
2022/05/24 06:16:14;;;;;;;;;0.33;0.00;;;;;19.96;53.84;100089.72;5037094;28;45477;-73
2022/05/24 06:18:40;;;;;;;;;0.00;0.00;;;;;19.91;52.57;100083.59;5037060;28;45299;-74
2022/05/24 06:21:06;;;;;;;;;0.00;0.00;;;;;20.87;51.98;100090.81;5037414;28;46008;-74
2022/05/24 06:23:32;;;;;;;;;0.00;0.00;;;;;24.89;42.94;100088.63;5036877;28;45431;-74
2022/05/24 06:25:58;;;;;;;;;0.33;0.00;;;;;27.68;36.87;100067.09;5036750;28;45433;-75
2022/05/24 06:28:23;;;;;;;;;0.00;0.00;;;;;28.97;35.09;100067.72;5037425;28;45420;-75
2022/05/24 06:30:49;;;;;;;;;1.00;0.00;;;;;29.31;35.01;100058.69;5037151;28;45299;-75
2022/05/24 06:33:15;;;;;;;;;0.00;0.00;;;;;27.65;34.50;100077.09;5037200;28;45453;-75
2022/05/24 06:35:41;;;;;;;;;0.00;0.00;;;;;26.47;36.22;100083.31;5037070;28;45618;-75
2022/05/24 06:38:07;;;;;;;;;0.00;0.00;;;;;25.38;39.60;100091.25;5037070;28;45447;-75
2022/05/24 06:40:34;;;;;;;;;0.00;0.00;;;;;24.79;40.22;100088.06;5035749;28;45525;-75
2022/05/24 06:43:00;;;;;;;;;2.00;1.67;;;;;23.95;40.58;100073.09;5036596;28;45505;-74
2022/05/24 06:45:26;;;;;;;;;0.00;0.00;;;;;23.28;42.78;100085.84;5036776;28;45509;-75
2022/05/24 06:47:52;;;;;;;;;0.00;0.00;;;;;22.55;43.80;100092.31;5037011;28;45324;-75
2022/05/24 06:50:18;;;;;;;;;0.00;0.00;;;;;21.91;45.23;100097.44;5037307;28;45557;-75
2022/05/24 06:52:44;;;;;;;;;0.00;0.00;;;;;21.50;46.16;100100.13;5035248;28;46505;-74
2022/05/24 06:55:11;;;;;;;;;0.67;0.00;;;;;21.06;47.67;100096.59;5036549;28;45396;-75
2022/05/24 06:57:36;;;;;;;;;1.00;1.00;;;;;20.69;48.29;100100.00;5036923;28;45501;-74
2022/05/24 07:02:49;;;;;;;;;0.00;0.00;;;;;20.11;50.70;100108.91;5039132;28;45476;-73
2022/05/24 07:05:19;;;;;;;;;1.33;1.00;;;;;19.83;50.92;100114.66;5039847;28;45305;-74
2022/05/24 07:07:46;;;;;;;;;0.00;0.00;;;;;19.48;51.66;100102.75;5040212;28;45455;-73
2022/05/24 07:10:15;;;;;;;;;1.00;1.00;;;;;19.28;52.37;100124.22;5040291;28;45303;-74
2022/05/24 07:12:42;;;;;;;;;0.00;0.00;;;;;18.99;53.81;100113.97;5040013;28;45449;-73
2022/05/24 07:15:08;;;;;;;;;0.00;0.00;;;;;18.84;54.89;100130.88;5038713;28;45570;-75
2022/05/24 07:17:34;;;;;;;;;0.00;0.00;;;;;18.57;56.45;100119.66;5038629;28;45287;-73
2022/05/24 07:20:00;;;;;;;;;0.33;0.33;;;;;18.50;56.15;100133.81;5040193;28;45462;-74
2022/05/24 07:22:26;;;;;;;;;0.00;0.00;;;;;18.27;57.01;100126.09;5040156;28;46306;-74
2022/05/24 07:24:52;;;;;;;;;0.00;0.00;;;;;18.31;56.92;100135.75;5039698;28;45450;-74
2022/05/24 07:27:20;;;;;;;;;0.00;0.00;;;;;18.29;57.44;100140.19;5040079;28;45415;-74
2022/05/24 07:29:47;;;;;;;;;0.00;0.00;;;;;18.29;57.79;100148.13;5040051;28;45378;-75
2022/05/24 07:32:13;;;;;;;;;1.00;0.67;;;;;18.20;57.04;100140.25;5039247;28;45351;-73
2022/05/24 07:34:40;;;;;;;;;2.00;1.33;;;;;18.27;58.13;100155.19;5039323;28;45488;-74
2022/05/24 07:37:12;;;;;;;;;1.00;1.00;;;;;18.22;58.53;100157.88;5038342;28;45847;-73
2022/05/24 07:39:37;;;;;;;;;3.00;2.00;;;;;18.15;58.74;100161.44;5039589;28;45403;-74
2022/05/24 07:47:23;;;;;;;;;8.67;8.67;;;;;17.70;59.53;100148.47;5039286;28;45437;-73
2022/05/24 07:49:48;;;;;;;;;3.00;3.00;;;;;17.77;60.52;100170.47;5039684;28;45493;-74
2022/05/24 07:52:14;;;;;;;;;0.67;0.67;;;;;17.62;60.11;100159.97;5039430;28;45451;-74
2022/05/24 07:54:40;;;;;;;;;0.33;0.33;;;;;17.66;60.35;100169.63;5054868;28;45314;-73
2022/05/24 07:57:10;;;;;;;;;0.67;0.67;;;;;17.62;60.64;100175.81;5039625;28;45509;-73
2022/05/24 07:59:37;;;;;;;;;0.67;0.67;;;;;17.57;60.31;100175.84;5039724;28;45201;-74
2022/05/24 08:02:04;;;;;;;;;3.00;3.00;;;;;17.48;61.33;100165.31;5038954;28;45959;-74
2022/05/24 08:04:30;;;;;;;;;0.00;0.00;;;;;17.53;60.95;100175.84;5039476;28;45445;-73
2022/05/24 08:06:58;;;;;;;;;0.67;0.00;;;;;17.48;61.92;100165.31;5037411;28;45438;-73
2022/05/24 08:09:23;;;;;;;;;1.00;1.00;;;;;17.64;61.70;100184.59;5039197;28;45502;-73
2022/05/24 08:11:49;;;;;;;;;5.00;5.00;;;;;17.77;61.82;100181.03;5038947;28;45314;-74
2022/05/24 08:14:15;;;;;;;;;0.67;0.67;;;;;17.88;58.88;100151.91;5037540;28;45458;-73
2022/05/24 08:16:42;;;;;;;;;0.67;0.67;;;;;18.12;59.17;100156.16;5039457;28;45391;-74
2022/05/24 08:19:08;;;;;;;;;1.33;0.67;;;;;18.35;58.89;100155.13;5038084;28;45317;-73
2022/05/24 08:21:34;;;;;;;;;1.67;1.33;;;;;18.36;58.20;100148.94;5038820;28;45580;-73
2022/05/24 08:24:01;;;;;;;;;1.00;1.00;;;;;18.27;58.59;100153.41;5038874;28;45882;-73
2022/05/24 08:26:29;;;;;;;;;1.00;1.00;;;;;18.31;58.75;100163.97;5037342;28;45253;-73
2022/05/24 08:28:54;;;;;;;;;4.67;3.67;;;;;18.28;59.91;100154.28;5037524;28;45475;-75
2022/05/24 08:31:20;;;;;;;;;1.33;1.00;;;;;18.22;58.85;100157.88;5038278;28;45415;-73
2022/05/24 08:33:47;;;;;;;;;0.33;0.33;;;;;18.31;57.88;100156.03;5038863;28;45500;-74
2022/05/24 08:36:13;;;;;;;;;0.67;0.67;;;;;18.16;57.79;100127.94;5039048;28;45445;-73
2022/05/24 08:38:40;;;;;;;;;0.67;0.33;;;;;18.39;57.49;100149.78;5038928;28;45487;-73
2022/05/24 08:41:37;;;;;;;;;0.00;0.00;;;;;18.57;57.11;100140.81;5036938;28;46369;-75
2022/05/24 08:50:09;;;;;;;;;2.00;1.00;;;;;19.91;54.50;100127.78;5026955;28;45340;-73
2022/05/24 08:53:04;;;;;;;;;1.00;0.00;;;;;19.71;54.09;100128.94;5038668;28;45355;-74
2022/05/24 08:55:31;;;;;;;;;0.00;0.00;;;;;19.60;53.79;100144.97;5038704;28;45410;-72
2022/05/24 08:57:59;;;;;;;;;2.00;2.00;;;;;19.36;55.00;100162.06;5036720;28;45396;-74
2022/05/24 09:00:36;;;;;;;;;0.00;0.00;;;;;18.94;55.59;100151.09;5038297;28;45447;-72
2022/05/24 09:03:05;;;;;;;;;7.67;4.00;;;;;18.72;56.92;100153.03;5037978;28;46243;-72
2022/05/24 09:05:33;;;;;;;;;8.67;7.33;;;;;18.58;57.87;100162.84;5037510;28;45424;-71
2022/05/24 09:08:34;;;;;;;;;1.67;1.00;;;;;18.47;59.33;100168.25;5037266;28;45467;-72
2022/05/24 09:11:27;;;;;;;;;1.33;1.00;;;;;18.42;59.09;100165.66;5036042;28;45557;-73
2022/05/24 09:13:52;;;;;;;;;1.00;1.00;;;;;18.35;59.11;100165.72;5037072;28;46002;-72
2022/05/24 09:16:18;;;;;;;;;1.00;1.00;;;;;18.31;59.94;100167.50;5036888;28;45466;-71
2022/05/24 09:19:06;;;;;;;;;1.00;1.00;;;;;18.31;60.14;100172.78;5037182;28;45469;-72
2022/05/24 09:21:35;;;;;;;;;0.00;0.00;;;;;18.15;59.36;100158.78;5035682;28;45493;-72
2022/05/24 09:24:21;;;;;;;;;0.00;0.00;;;;;18.34;59.38;100178.03;5036171;28;45273;-71
2022/05/24 09:27:09;;;;;;;;;0.00;0.00;;;;;18.47;58.09;100123.28;5032880;28;45389;-71
2022/05/24 09:29:57;;;;;;;;;0.00;0.00;;;;;19.21;56.90;100156.94;5037943;28;45513;-71
2022/05/24 09:32:30;;;;;;;;;0.00;0.00;;;;;19.35;55.59;100072.91;5012409;28;45443;-73
2022/05/24 09:35:21;;;;;;;;;0.00;0.00;;;;;20.18;52.86;100143.28;5037414;28;45397;-73
2022/05/24 09:38:13;;;;;;;;;0.00;0.00;;;;;20.80;50.81;100155.53;5052864;28;45570;-72
2022/05/24 09:40:55;;;;;;;;;1.00;1.00;;;;;21.58;49.85;100153.13;5052619;28;45501;-72
2022/05/24 09:43:33;;;;;;;;;0.00;0.00;;;;;22.22;46.85;100153.44;5036000;28;45249;-71
2022/05/24 09:46:20;;;;;;;;;0.00;0.00;;;;;22.74;46.03;100154.81;5052384;28;46742;-73
2022/05/24 09:48:59;;;;;;;;;0.00;0.00;;;;;23.96;44.59;100152.22;5052818;28;45566;-73
2022/05/24 09:51:30;;;;;;;;;0.00;0.00;;;;;24.30;42.96;100153.81;5052902;28;45420;-73
2022/05/24 09:53:56;;;;;;;;;0.00;0.00;;;;;24.02;43.41;100149.38;5037672;28;45193;-73
2022/05/24 09:56:26;;;;;;;;;0.00;0.00;;;;;23.52;43.27;100130.44;5035807;28;47598;-74
2022/05/24 09:58:55;;;;;;;;;0.00;0.00;;;;;23.34;44.07;100160.31;5052500;28;45469;-73
2022/05/24 10:01:43;;;;;;;;;0.00;0.00;;;;;23.12;44.49;100155.59;5052243;28;45641;-73
2022/05/24 10:04:18;;;;;;;;;0.00;0.00;;;;;23.25;45.04;100165.91;5035968;28;45549;-73
2022/05/24 10:06:51;;;;;;;;;0.00;0.00;;;;;23.14;44.48;100147.53;5035017;28;46989;-76
2022/05/24 10:09:20;;;;;;;;;0.00;0.00;;;;;23.16;44.71;100157.25;5035694;28;45776;-73
2022/05/24 10:12:15;;;;;;;;;0.00;0.00;;;;;23.19;43.43;100154.50;5036924;28;45448;-74
2022/05/24 10:15:19;;;;;;;;;0.00;0.00;;;;;23.02;43.47;100151.44;5035092;28;45680;-74
2022/05/24 10:18:03;;;;;;;;;0.00;0.00;;;;;22.73;43.61;100147.72;5023023;28;46825;-73
2022/05/24 10:20:54;;;;;;;;;0.00;0.00;;;;;22.39;45.21;100135.28;5034011;28;45515;-72
2022/05/24 10:23:58;;;;;;;;;0.00;0.00;;;;;22.41;45.33;100159.22;5034725;28;45358;-72
2022/05/24 10:26:30;;;;;;;;;1.00;0.67;;;;;22.36;45.94;100169.09;5023674;28;45735;-72
2022/05/24 10:28:55;;;;;;;;;0.00;0.00;;;;;22.13;46.47;100161.66;5033365;28;46829;-72
2022/05/24 10:31:38;;;;;;;;;0.33;0.00;;;;;21.89;45.95;100161.31;5035076;28;45435;-72
2022/05/24 10:40:33;;;;;;;;;0.00;0.00;;;;;21.56;46.08;100146.97;5036321;28;45876;-72
2022/05/24 10:43:27;;;;;;;;;0.00;0.00;;;;;21.58;46.23;100156.66;5035204;28;45466;-72
2022/05/24 10:46:01;;;;;;;;;0.00;0.00;;;;;21.64;46.72;100158.31;5036854;28;45427;-72
2022/05/24 10:48:43;;;;;;;;;0.00;0.00;;;;;21.60;47.04;100144.19;5036820;28;45437;-72
2022/05/24 10:51:47;;;;;;;;;0.67;0.00;;;;;21.57;48.58;100143.41;5035380;28;46301;-72
2022/05/24 10:54:20;;;;;;;;;0.00;0.00;;;;;21.59;47.77;100133.63;5034809;28;45568;-73
2022/05/24 10:56:59;;;;;;;;;0.00;0.00;;;;;21.67;48.02;100142.31;5034950;28;45515;-73
2022/05/24 10:59:50;;;;;;;;;0.00;0.00;;;;;21.82;48.07;100163.19;5033100;28;45326;-73
2022/05/24 11:02:28;;;;;;;;;0.00;0.00;;;;;21.99;48.67;100160.19;5034524;28;46169;-73
2022/05/24 11:05:12;;;;;;;;;0.00;0.00;;;;;22.04;47.79;100163.63;5035804;28;45275;-73
2022/05/24 11:07:37;;;;;;;;;0.00;0.00;;;;;22.17;46.71;100158.00;5036949;28;45789;-72
2022/05/24 11:10:30;;;;;;;;;0.00;0.00;;;;;22.34;46.41;100141.63;5036675;28;45426;-73
2022/05/24 11:13:01;;;;;;;;;0.00;0.00;;;;;22.69;44.96;100135.41;5036487;28;45850;-72
2022/05/24 11:15:36;;;;;;;;;0.00;0.00;;;;;22.95;45.77;100125.84;5034426;28;45386;-73
2022/05/24 11:18:11;;;;;;;;;21.33;20.33;;;;;22.95;44.64;100108.06;5036284;28;45454;-73
2022/05/24 11:20:43;;;;;;;;;0.00;0.00;;;;;22.88;45.14;100137.56;5036959;28;45469;-73
2022/05/24 11:23:21;;;;;;;;;0.00;0.00;;;;;22.34;44.90;100131.00;5036462;28;45210;-73
2022/05/24 11:26:15;;;;;;;;;0.33;0.00;;;;;21.84;46.42;100136.59;5035755;28;45364;-72
2022/05/24 11:28:47;;;;;;;;;0.33;0.00;;;;;21.36;46.99;100136.72;5036436;28;45473;-73
2022/05/24 11:31:36;;;;;;;;;1.00;1.00;;;;;21.17;49.14;100150.41;5036108;28;45534;-73
2022/05/24 11:34:10;;;;;;;;;0.00;0.00;;;;;20.85;52.14;100159.00;5027273;28;46167;-72
2022/05/24 11:36:43;;;;;;;;;0.00;0.00;;;;;20.48;53.19;100167.56;5035731;28;45344;-73
2022/05/24 11:39:22;;;;;;;;;0.33;0.00;;;;;20.24;53.72;100158.22;5036006;28;45560;-72
2022/05/24 11:41:49;;;;;;;;;1.00;0.00;;;;;20.11;54.58;100146.91;5036078;28;45499;-73
2022/05/24 11:44:33;;;;;;;;;1.00;0.00;;;;;20.14;53.09;100161.91;5035667;28;45945;-73
2022/05/24 11:46:59;;;;;;;;;1.00;0.00;;;;;20.14;54.28;100161.91;5036035;28;45375;-72
2022/05/24 11:49:27;;;;;;;;;0.00;0.00;;;;;20.34;53.53;100161.59;5039380;28;45363;-72
2022/05/24 11:51:57;;;;;;;;;0.00;0.00;;;;;20.62;53.25;100154.94;5039299;28;45504;-72
2022/05/24 11:54:23;;;;;;;;;0.00;0.00;;;;;20.82;51.25;100159.03;5054227;28;45521;-73
2022/05/24 11:57:01;;;;;;;;;0.00;0.00;;;;;20.67;52.29;100157.50;5039063;28;45537;-72
2022/05/24 11:59:39;;;;;;;;;0.00;0.00;;;;;20.36;52.99;100162.44;5039101;28;45348;-73
2022/05/24 12:02:20;;;;;;;;;0.67;0.00;;;;;19.99;53.59;100171.84;5039416;28;45375;-73
2022/05/24 12:08:04;;;;;;;;;0.00;0.00;;;;;19.60;54.16;100176.78;5039041;28;45536;-72
2022/05/24 12:10:40;;;;;;;;;0.00;0.00;;;;;19.44;54.45;100144.31;5037753;28;45467;-72
2022/05/24 12:13:08;;;;;;;;;0.00;0.00;;;;;19.73;53.66;100171.34;5039299;28;45351;-72
2022/05/24 12:15:43;;;;;;;;;0.00;0.00;;;;;20.12;52.85;100153.13;5038841;28;46035;-72
2022/05/24 12:18:09;;;;;;;;;0.00;0.00;;;;;20.52;51.52;100155.97;5038732;28;45490;-72
2022/05/24 12:20:35;;;;;;;;;0.00;0.00;;;;;20.64;51.49;100157.59;5038977;28;45436;-72
2022/05/24 12:23:19;;;;;;;;;0.00;0.00;;;;;20.25;52.95;100160.84;5038891;28;45509;-72